Time;durP1;ratioP1;P1;durP2;ratioP2;P2;SDS_P1;SDS_P2;PMS_P1;PMS_P2;Temp;Humidity;BMP_temperature;BMP_pressure;BME280_temperature;BME280_humidity;BME280_pressure;Samples;Min_cycle;Max_cycle;Signal;HPM_P1;HPM_P2
2023/09/24 00:00:10;;;;;;;5.68;4.00;;;12.40;99.90;;;;;;5074452;28;20044;-88
2023/09/24 00:02:36;;;;;;;5.40;4.88;;;12.40;99.90;;;;;;5080530;27;20050;-87
2023/09/24 00:05:03;;;;;;;7.30;4.97;;;12.40;99.90;;;;;;5073998;28;20035;-87
2023/09/24 00:07:29;;;;;;;5.13;4.07;;;12.40;99.90;;;;;;5080566;28;20071;-87
2023/09/24 00:09:56;;;;;;;8.18;4.90;;;12.40;99.90;;;;;;5075728;27;20077;-87
2023/09/24 00:12:21;;;;;;;7.13;5.85;;;12.30;99.90;;;;;;5079203;27;20039;-87
2023/09/24 00:14:47;;;;;;;6.13;5.38;;;12.30;99.90;;;;;;5091504;28;20096;-87
2023/09/24 00:17:16;;;;;;;5.93;5.10;;;12.30;99.90;;;;;;5072772;28;20047;-87
2023/09/24 00:19:41;;;;;;;8.07;5.65;;;12.20;99.90;;;;;;5117442;27;20119;-88
2023/09/24 00:22:07;;;;;;;6.22;5.63;;;12.20;99.90;;;;;;5092255;28;20119;-87
2023/09/24 00:24:32;;;;;;;5.75;4.82;;;12.10;99.90;;;;;;5078173;28;20024;-87
2023/09/24 00:26:58;;;;;;;6.00;5.40;;;12.10;99.90;;;;;;5090262;28;20028;-87
2023/09/24 00:29:23;;;;;;;6.75;4.95;;;12.10;99.90;;;;;;5071558;27;20126;-87
2023/09/24 00:31:49;;;;;;;8.25;5.07;;;12.00;99.90;;;;;;5077710;28;20046;-87
2023/09/24 00:34:16;;;;;;;5.93;5.20;;;11.90;99.90;;;;;;5098953;28;20039;-87
2023/09/24 00:36:42;;;;;;;9.88;6.60;;;11.90;99.90;;;;;;5090700;28;20112;-88
2023/09/24 00:39:07;;;;;;;6.65;4.93;;;11.90;99.90;;;;;;5121499;27;20494;-87
2023/09/24 00:41:33;;;;;;;8.88;5.72;;;11.80;99.90;;;;;;5075569;28;20027;-87
2023/09/24 00:44:00;;;;;;;8.05;5.38;;;11.80;99.90;;;;;;5083563;28;20481;-88
2023/09/24 00:46:26;;;;;;;7.43;5.10;;;11.70;99.90;;;;;;5076815;28;20179;-87
2023/09/24 00:48:53;;;;;;;6.65;4.75;;;11.70;99.90;;;;;;5092397;28;20519;-87
2023/09/24 00:51:23;;;;;;;7.90;5.75;;;11.60;99.90;;;;;;5069554;28;20036;-87
2023/09/24 00:53:52;;;;;;;6.82;5.22;;;11.60;99.90;;;;;;5069522;28;20705;-87
2023/09/24 00:56:18;;;;;;;7.72;5.40;;;11.60;99.90;;;;;;5090672;28;20517;-88
2023/09/24 00:58:46;;;;;;;6.97;5.30;;;11.50;99.90;;;;;;5073029;28;20563;-87
2023/09/24 01:01:12;;;;;;;7.53;6.00;;;11.50;99.90;;;;;;5071360;28;20035;-87
2023/09/24 01:03:40;;;;;;;6.68;5.97;;;11.40;99.90;;;;;;5109785;28;20035;-87
2023/09/24 01:06:06;;;;;;;8.38;6.38;;;11.50;99.90;;;;;;5067227;28;20032;-87
2023/09/24 01:08:33;;;;;;;8.40;6.05;;;11.50;99.90;;;;;;5088736;28;20050;-87
2023/09/24 01:10:59;;;;;;;10.02;7.40;;;11.50;99.90;;;;;;5088655;28;20042;-87
2023/09/24 01:13:36;;;;;;;8.98;6.47;;;11.40;99.90;;;;;;5123916;27;20612;-87
2023/09/24 01:16:04;;;;;;;7.32;5.97;;;11.40;99.90;;;;;;5086672;28;20081;-87
2023/09/24 01:18:31;;;;;;;8.70;6.35;;;11.40;99.90;;;;;;5087563;28;20054;-87
2023/09/24 01:20:58;;;;;;;8.63;6.90;;;11.40;99.90;;;;;;5094052;27;20075;-87
2023/09/24 01:23:24;;;;;;;10.57;6.80;;;11.40;99.90;;;;;;5108520;23;20054;-30
2023/09/24 01:25:51;;;;;;;20.08;7.55;;;11.50;99.90;;;;;;5101159;28;20032;-29
2023/09/24 01:28:16;;;;;;;8.18;6.50;;;11.50;99.90;;;;;;5089523;28;20040;-29
2023/09/24 01:30:44;;;;;;;7.30;6.70;;;11.60;99.90;;;;;;5091017;28;20414;-28
2023/09/24 01:33:09;;;;;;;7.95;6.10;;;11.60;99.90;;;;;;5089285;28;20558;-29
2023/09/24 01:35:36;;;;;;;7.45;6.60;;;11.60;99.90;;;;;;5085446;28;20123;-31
2023/09/24 01:38:05;;;;;;;7.35;6.65;;;11.70;99.90;;;;;;5088835;28;20065;-29
2023/09/24 01:40:33;;;;;;;8.55;7.38;;;11.70;99.90;;;;;;5096973;28;20044;-29
2023/09/24 01:43:00;;;;;;;23.77;8.02;;;11.70;99.90;;;;;;5086834;28;20035;-27
2023/09/24 01:45:30;;;;;;;19.33;8.50;;;11.80;99.90;;;;;;5097969;28;20064;-27
2023/09/24 01:47:56;;;;;;;15.50;7.22;;;11.90;99.90;;;;;;5090146;28;20043;-27
2023/09/24 01:50:27;;;;;;;19.98;8.50;;;11.90;99.90;;;;;;5097081;28;20035;-27
2023/09/24 01:52:58;;;;;;;80.85;11.57;;;11.90;99.90;;;;;;5092354;28;20549;-27
2023/09/24 01:55:25;;;;;;;15.80;7.18;;;11.90;99.90;;;;;;5104333;28;20047;-27
2023/09/24 01:57:53;;;;;;;17.58;7.40;;;11.90;99.90;;;;;;5092097;28;20093;-27
2023/09/24 02:00:23;;;;;;;25.77;7.78;;;11.90;99.90;;;;;;5093695;28;20401;-27
2023/09/24 02:02:50;;;;;;;25.83;7.05;;;11.90;99.90;;;;;;5089962;28;20036;-27
2023/09/24 02:05:16;;;;;;;24.23;6.07;;;11.90;99.90;;;;;;5094288;28;20082;-27
2023/09/24 02:07:41;;;;;;;15.90;6.80;;;11.90;99.90;;;;;;5089127;28;20096;-27
2023/09/24 02:10:08;;;;;;;13.93;6.55;;;11.80;99.90;;;;;;5085059;28;20049;-27
2023/09/24 02:12:37;;;;;;;14.80;6.15;;;11.80;99.90;;;;;;5102815;28;20431;-27
2023/09/24 02:15:17;;;;;;;7.78;5.88;;;11.70;99.90;;;;;;5088164;28;20079;-27
2023/09/24 02:17:44;;;;;;;8.18;5.85;;;11.70;99.90;;;;;;5091585;28;20036;-27
2023/09/24 02:20:22;;;;;;;7.13;5.85;;;11.70;99.90;;;;;;5098284;28;20082;-27
2023/09/24 02:22:48;;;;;;;11.10;5.90;;;11.60;99.90;;;;;;5091532;28;20071;-27
2023/09/24 02:25:16;;;;;;;7.70;5.60;;;11.60;99.90;;;;;;5098239;28;20036;-27
2023/09/24 02:27:42;;;;;;;6.78;5.63;;;11.50;99.90;;;;;;5090859;28;20043;-27
2023/09/24 02:30:10;;;;;;;5.88;5.38;;;11.50;99.90;;;;;;5092323;28;20032;-27
2023/09/24 02:32:38;;;;;;;6.57;5.57;;;11.40;99.90;;;;;;5092354;28;20035;-27
2023/09/24 02:35:04;;;;;;;8.00;5.30;;;11.40;99.90;;;;;;5072752;28;20075;-27
2023/09/24 02:37:30;;;;;;;6.72;5.72;;;11.30;99.90;;;;;;5088776;28;20040;-27
2023/09/24 02:39:56;;;;;;;5.93;5.30;;;11.30;99.90;;;;;;5078372;28;20040;-27
2023/09/24 02:42:22;;;;;;;6.05;5.38;;;11.20;99.90;;;;;;5088348;28;20468;-27
2023/09/24 02:44:51;;;;;;;6.55;5.00;;;11.20;99.90;;;;;;5088954;28;20044;-27
2023/09/24 02:47:16;;;;;;;7.28;6.30;;;11.20;99.90;;;;;;5081854;28;20032;-27
2023/09/24 02:49:43;;;;;;;5.30;4.57;;;11.10;99.90;;;;;;5090341;28;20403;-27
2023/09/24 02:52:09;;;;;;;5.57;4.90;;;11.10;99.90;;;;;;5085278;28;20419;-27
2023/09/24 02:54:34;;;;;;;7.50;5.65;;;11.10;99.90;;;;;;5090623;28;20032;-27
2023/09/24 02:57:00;;;;;;;5.93;5.32;;;11.00;99.90;;;;;;5090338;28;20027;-27
2023/09/24 02:59:26;;;;;;;7.35;5.18;;;11.00;99.90;;;;;;5068232;28;20502;-27
2023/09/24 03:01:52;;;;;;;6.78;5.75;;;11.00;99.90;;;;;;5087161;28;20043;-27
2023/09/24 03:04:18;;;;;;;8.52;5.80;;;11.00;99.90;;;;;;5093269;28;20510;-27
2023/09/24 03:06:45;;;;;;;6.95;5.75;;;11.00;99.90;;;;;;5086452;28;20032;-27
2023/09/24 03:09:11;;;;;;;7.10;5.90;;;11.00;99.90;;;;;;5088570;28;20125;-27
2023/09/24 03:11:37;;;;;;;7.25;5.90;;;10.90;99.90;;;;;;5086878;28;20133;-27
2023/09/24 03:14:06;;;;;;;7.10;5.80;;;10.90;99.90;;;;;;5084436;28;20041;-29
2023/09/24 03:16:32;;;;;;;8.27;5.50;;;10.90;99.90;;;;;;5086433;28;20036;-28
2023/09/24 03:18:59;;;;;;;11.48;6.57;;;10.80;99.90;;;;;;5079012;28;20035;-28
2023/09/24 03:21:25;;;;;;;6.53;5.78;;;10.80;99.90;;;;;;5086013;28;20044;-28
2023/09/24 03:23:52;;;;;;;8.30;5.80;;;10.70;99.90;;;;;;5085193;28;20046;-28
2023/09/24 03:26:19;;;;;;;10.25;6.20;;;10.70;99.90;;;;;;5080511;28;20040;-28
2023/09/24 03:28:45;;;;;;;8.90;5.97;;;10.70;99.90;;;;;;5093272;28;20039;-28
2023/09/24 03:31:15;;;;;;;8.75;6.50;;;10.60;99.90;;;;;;5088168;28;20039;-28
2023/09/24 03:33:41;;;;;;;9.35;6.60;;;10.60;99.90;;;;;;5086906;28;20118;-28
2023/09/24 03:36:10;;;;;;;7.68;5.93;;;10.60;99.90;;;;;;5088746;28;20119;-28
2023/09/24 03:38:36;;;;;;;9.40;6.50;;;10.60;99.90;;;;;;5091200;28;20036;-28
2023/09/24 03:41:03;;;;;;;9.70;6.95;;;10.60;99.90;;;;;;5091137;28;20055;-28
2023/09/24 03:43:32;;;;;;;8.57;6.68;;;10.60;99.90;;;;;;5088139;28;20379;-28
2023/09/24 03:45:58;;;;;;;11.13;7.47;;;10.50;99.90;;;;;;5086199;28;20035;-28
2023/09/24 03:48:23;;;;;;;11.43;6.95;;;10.50;99.90;;;;;;5091682;28;20448;-28
2023/09/24 03:50:50;;;;;;;9.52;6.82;;;10.50;99.90;;;;;;5069138;28;20062;-28
2023/09/24 03:53:18;;;;;;;11.18;7.07;;;10.50;99.90;;;;;;5088307;28;20032;-28
2023/09/24 03:55:45;;;;;;;9.07;6.95;;;10.50;99.90;;;;;;5093648;28;20462;-28
2023/09/24 03:58:11;;;;;;;9.63;6.78;;;10.40;99.90;;;;;;5098996;28;20563;-28
2023/09/24 04:00:37;;;;;;;12.18;7.70;;;10.50;99.90;;;;;;5087194;28;20033;-28
2023/09/24 04:03:03;;;;;;;12.63;8.90;;;10.50;99.90;;;;;;5091248;28;20045;-28
2023/09/24 04:05:30;;;;;;;8.77;7.03;;;10.50;99.90;;;;;;5081737;28;20043;-28
2023/09/24 04:07:56;;;;;;;10.82;6.85;;;10.40;99.90;;;;;;5090051;28;20286;-28
2023/09/24 04:10:23;;;;;;;9.10;7.18;;;10.40;99.90;;;;;;5084609;28;20059;-28
2023/09/24 04:12:50;;;;;;;8.98;7.18;;;10.40;99.90;;;;;;5093856;28;20097;-28
2023/09/24 04:15:18;;;;;;;10.48;8.52;;;10.40;99.90;;;;;;5086488;28;20114;-28
2023/09/24 04:17:46;;;;;;;9.57;7.70;;;10.40;99.90;;;;;;5084062;28;20039;-28
2023/09/24 04:20:15;;;;;;;15.27;8.07;;;10.40;99.90;;;;;;5075944;28;20051;-28
2023/09/24 04:22:44;;;;;;;10.20;7.38;;;10.40;99.90;;;;;;5091531;28;20521;-28
2023/09/24 04:25:11;;;;;;;12.85;7.95;;;10.30;99.90;;;;;;5084963;28;20043;-28
2023/09/24 04:27:38;;;;;;;10.88;8.70;;;10.30;99.90;;;;;;5086374;28;20043;-28
2023/09/24 04:30:08;;;;;;;10.20;7.97;;;10.30;99.90;;;;;;5089067;28;20051;-28
2023/09/24 04:32:34;;;;;;;15.18;8.98;;;10.40;99.90;;;;;;5087497;28;20126;-28
2023/09/24 04:35:00;;;;;;;9.00;7.55;;;10.30;99.90;;;;;;5093399;28;20157;-28
2023/09/24 04:37:26;;;;;;;10.63;8.18;;;10.30;99.90;;;;;;5096972;28;20101;-28
2023/09/24 04:39:52;;;;;;;15.43;8.15;;;10.30;99.90;;;;;;5094010;28;20039;-28
2023/09/24 04:42:18;;;;;;;10.20;8.57;;;10.30;99.90;;;;;;5089967;28;20399;-28
2023/09/24 04:44:43;;;;;;;10.30;8.15;;;10.30;99.90;;;;;;5085097;28;20394;-28
2023/09/24 04:47:09;;;;;;;9.98;7.57;;;10.30;99.90;;;;;;5094265;28;20032;-28
2023/09/24 04:49:35;;;;;;;11.50;8.80;;;10.30;99.90;;;;;;5091786;28;20040;-28
2023/09/24 04:52:01;;;;;;;12.27;8.40;;;10.30;99.90;;;;;;5086832;28;20037;-28
2023/09/24 04:54:27;;;;;;;10.40;7.47;;;10.20;99.90;;;;;;5094496;28;20040;-28
2023/09/24 04:56:53;;;;;;;12.05;8.02;;;10.20;99.90;;;;;;5087507;28;20589;-28
2023/09/24 04:59:18;;;;;;;14.00;8.57;;;10.20;99.90;;;;;;5085547;28;20037;-28
2023/09/24 05:01:44;;;;;;;14.10;8.88;;;10.20;99.90;;;;;;5086446;28;20518;-28
2023/09/24 05:04:10;;;;;;;14.07;9.30;;;10.20;99.90;;;;;;5086579;28;20477;-28
2023/09/24 05:06:35;;;;;;;12.43;8.45;;;10.20;99.90;;;;;;5085595;28;20035;-28
2023/09/24 05:09:01;;;;;;;9.55;8.55;;;10.10;99.90;;;;;;5092805;28;20079;-28
2023/09/24 05:11:27;;;;;;;10.10;8.98;;;10.10;99.90;;;;;;5092819;28;20043;-28
2023/09/24 05:13:53;;;;;;;11.32;9.88;;;10.10;99.90;;;;;;5089097;28;20056;-28
2023/09/24 05:16:19;;;;;;;14.80;9.07;;;10.10;99.90;;;;;;5087645;28;20036;-28
2023/09/24 05:18:45;;;;;;;12.82;9.93;;;10.10;99.90;;;;;;5092342;28;20114;-28
2023/09/24 05:21:15;;;;;;;13.90;9.65;;;10.10;99.90;;;;;;5079051;28;20124;-28
2023/09/24 05:23:41;;;;;;;10.63;9.32;;;10.10;99.90;;;;;;5092722;28;20462;-28
2023/09/24 05:26:14;;;;;;;10.82;8.93;;;10.00;99.90;;;;;;5063338;28;20040;-28
2023/09/24 05:28:40;;;;;;;11.15;8.75;;;10.00;99.90;;;;;;5074809;28;20043;-28
2023/09/24 05:31:06;;;;;;;13.82;9.85;;;10.00;99.90;;;;;;5093340;28;20044;-28
2023/09/24 05:33:32;;;;;;;12.70;9.68;;;10.00;99.90;;;;;;5092446;28;20707;-28
2023/09/24 05:35:57;;;;;;;13.57;9.70;;;10.00;99.90;;;;;;5088089;28;20055;-28
2023/09/24 05:38:26;;;;;;;14.55;9.77;;;10.00;99.90;;;;;;5089307;28;20044;-28
2023/09/24 05:40:52;;;;;;;13.02;10.32;;;10.00;99.90;;;;;;5085239;28;20495;-28
2023/09/24 05:43:19;;;;;;;13.07;9.55;;;10.00;99.90;;;;;;5092005;28;20039;-28
2023/09/24 05:45:46;;;;;;;14.55;10.15;;;10.00;99.90;;;;;;5089595;28;20089;-28
2023/09/24 05:48:13;;;;;;;16.95;10.63;;;10.00;99.90;;;;;;5090848;28;20115;-28
2023/09/24 05:50:38;;;;;;;15.27;10.55;;;10.10;99.90;;;;;;5075113;28;20074;-28
2023/09/24 05:53:04;;;;;;;16.17;10.98;;;10.00;99.90;;;;;;5080967;28;20124;-28
2023/09/24 05:55:31;;;;;;;15.82;10.40;;;10.00;99.90;;;;;;5086293;28;20513;-28
2023/09/24 05:57:56;;;;;;;15.73;11.85;;;10.10;99.90;;;;;;5078974;28;20071;-28
2023/09/24 06:00:22;;;;;;;12.18;10.00;;;10.10;99.90;;;;;;5081139;28;20037;-28
2023/09/24 06:02:48;;;;;;;17.38;12.05;;;10.10;99.90;;;;;;5077423;28;20472;-28
2023/09/24 06:05:13;;;;;;;14.35;12.32;;;10.10;99.90;;;;;;5078141;28;20032;-28
2023/09/24 06:07:39;;;;;;;17.45;11.50;;;10.10;99.90;;;;;;5079413;28;20128;-27
2023/09/24 06:10:06;;;;;;;18.05;12.95;;;10.10;99.90;;;;;;5079793;28;20036;-28
2023/09/24 06:12:32;;;;;;;17.70;12.27;;;10.10;99.90;;;;;;5067690;28;20044;-28
2023/09/24 06:14:58;;;;;;;15.13;11.90;;;10.20;99.90;;;;;;5088610;28;20551;-28
2023/09/24 06:17:24;;;;;;;18.48;12.38;;;10.20;99.90;;;;;;5083901;28;20040;-28
2023/09/24 06:19:51;;;;;;;16.60;13.00;;;10.20;99.90;;;;;;5086176;28;20459;-28
2023/09/24 06:22:17;;;;;;;16.10;12.32;;;10.20;99.90;;;;;;5076511;28;20036;-28
2023/09/24 06:24:43;;;;;;;21.00;13.57;;;10.30;99.90;;;;;;5084830;28;20078;-28
2023/09/24 06:27:09;;;;;;;20.85;14.15;;;10.30;99.90;;;;;;5069855;28;20499;-28
2023/09/24 06:29:35;;;;;;;18.08;13.65;;;10.40;99.90;;;;;;5082960;28;20419;-28
2023/09/24 06:32:01;;;;;;;19.30;13.55;;;10.40;99.90;;;;;;5087866;28;20032;-28
2023/09/24 06:34:27;;;;;;;17.90;13.57;;;10.40;99.90;;;;;;5082783;28;20032;-28
2023/09/24 06:36:53;;;;;;;17.30;13.60;;;10.50;99.90;;;;;;5084759;28;20040;-27
2023/09/24 06:39:19;;;;;;;18.02;13.57;;;10.50;99.90;;;;;;5063370;28;20043;-27
2023/09/24 06:41:44;;;;;;;20.00;14.90;;;10.60;99.90;;;;;;5090941;28;20406;-27
2023/09/24 06:44:11;;;;;;;18.45;14.82;;;10.60;99.90;;;;;;5069455;28;20033;-27
2023/09/24 06:46:36;;;;;;;18.83;15.00;;;10.70;99.90;;;;;;5090144;28;20047;-27
2023/09/24 06:49:02;;;;;;;17.23;14.20;;;10.70;99.90;;;;;;5096692;28;20044;-27
2023/09/24 06:51:28;;;;;;;17.77;14.57;;;10.80;99.90;;;;;;5098490;28;20122;-27
2023/09/24 06:53:54;;;;;;;17.77;13.07;;;10.90;99.90;;;;;;5091623;28;20548;-27
2023/09/24 06:56:19;;;;;;;17.02;13.27;;;10.90;99.90;;;;;;5091874;28;20063;-27
2023/09/24 06:58:45;;;;;;;17.40;13.38;;;10.90;99.90;;;;;;5079564;28;20089;-27
2023/09/24 07:01:11;;;;;;;18.70;14.32;;;11.10;99.90;;;;;;5094338;28;20486;-27
2023/09/24 07:03:37;;;;;;;18.00;12.50;;;11.10;99.90;;;;;;5097052;28;20036;-27
2023/09/24 07:06:05;;;;;;;19.42;12.70;;;11.20;99.90;;;;;;5090569;28;20032;-27
2023/09/24 07:08:33;;;;;;;18.02;13.10;;;11.30;99.90;;;;;;5090874;28;20374;-27
2023/09/24 07:11:30;;;;;;;17.38;13.85;;;11.30;99.90;;;;;;5096524;28;20464;-27
2023/09/24 07:13:56;;;;;;;16.75;12.57;;;11.30;99.90;;;;;;5089172;28;20051;-27
2023/09/24 07:16:23;;;;;;;15.75;12.10;;;11.40;99.90;;;;;;5088399;28;20119;-27
2023/09/24 07:18:50;;;;;;;17.52;13.20;;;11.50;99.90;;;;;;5096868;28;20036;-27
2023/09/24 07:21:20;;;;;;;15.80;13.25;;;11.50;99.90;;;;;;5086276;28;20943;-27
2023/09/24 07:26:14;;;;;;;17.58;12.98;;;11.60;99.90;;;;;;5044020;28;20045;-28
2023/09/24 07:28:40;;;;;;;16.75;12.77;;;11.60;99.90;;;;;;5053815;28;20127;-26
2023/09/24 07:31:13;;;;;;;15.00;12.48;;;11.70;99.90;;;;;;5053564;28;20112;-26
2023/09/24 07:33:40;;;;;;;15.98;12.88;;;11.70;99.90;;;;;;5054943;28;20053;-25
2023/09/24 07:36:05;;;;;;;17.52;12.68;;;11.80;99.90;;;;;;5050964;28;20036;-27
2023/09/24 07:38:31;;;;;;;14.38;12.82;;;11.90;99.90;;;;;;5054721;28;20581;-26
2023/09/24 07:40:57;;;;;;;15.85;12.25;;;12.00;99.90;;;;;;5057544;28;20025;-25
2023/09/24 07:43:23;;;;;;;12.45;11.10;;;12.10;99.90;;;;;;5049114;28;20033;-26
2023/09/24 07:45:48;;;;;;;15.23;11.18;;;12.20;99.90;;;;;;5056006;28;20037;-26
2023/09/24 07:48:14;;;;;;;16.50;11.82;;;12.40;99.90;;;;;;5051391;28;20037;-29
2023/09/24 07:50:47;;;;;;;14.88;11.73;;;12.70;99.90;;;;;;5050655;28;20033;-29
2023/09/24 07:53:12;;;;;;;14.23;10.27;;;12.90;99.90;;;;;;5057285;28;20438;-26
2023/09/24 07:55:38;;;;;;;14.57;11.65;;;13.10;99.90;;;;;;5052085;28;20041;-27
2023/09/24 07:58:03;;;;;;;19.63;12.13;;;13.40;99.90;;;;;;5054293;28;20044;-26
2023/09/24 08:00:29;;;;;;;10.43;9.27;;;13.60;99.90;;;;;;5053791;28;20033;-26
2023/09/24 08:02:55;;;;;;;13.35;10.25;;;13.90;99.90;;;;;;5057596;28;20475;-26
2023/09/24 08:05:21;;;;;;;13.43;9.82;;;14.10;99.90;;;;;;5058958;28;20112;-29
2023/09/24 08:07:46;;;;;;;12.45;9.50;;;14.30;99.90;;;;;;5058414;28;20086;-27
2023/09/24 08:10:12;;;;;;;12.20;9.40;;;14.50;99.90;;;;;;5051258;28;20037;-28
2023/09/24 08:12:39;;;;;;;11.65;8.73;;;14.70;99.90;;;;;;5056965;28;20051;-29
2023/09/24 08:15:05;;;;;;;10.73;7.65;;;14.90;99.90;;;;;;5050993;28;20041;-28
2023/09/24 08:17:31;;;;;;;10.77;8.93;;;15.20;99.90;;;;;;5050939;28;20044;-28
2023/09/24 08:19:57;;;;;;;11.90;9.65;;;15.50;99.90;;;;;;5057099;28;20033;-29
2023/09/24 08:22:23;;;;;;;9.82;7.97;;;15.80;99.90;;;;;;5047107;28;20033;-28
2023/09/24 08:24:49;;;;;;;10.25;8.02;;;16.00;99.90;;;;;;5056534;28;20032;-28
2023/09/24 08:27:14;;;;;;;11.80;8.35;;;16.30;99.90;;;;;;5060591;28;20035;-29
2023/09/24 08:29:40;;;;;;;9.43;7.15;;;16.60;99.90;;;;;;5058525;28;20045;-29
2023/09/24 08:32:06;;;;;;;10.07;7.65;;;16.90;99.90;;;;;;5051066;28;20037;-29
2023/09/24 08:34:32;;;;;;;11.85;7.80;;;17.10;99.90;;;;;;5053135;28;20044;-30
2023/09/24 08:36:57;;;;;;;7.57;6.72;;;17.40;99.90;;;;;;5054566;28;20082;-27
2023/09/24 08:39:23;;;;;;;8.25;7.40;;;17.40;99.90;;;;;;5050755;28;20048;-27
2023/09/24 08:41:52;;;;;;;11.18;6.85;;;17.60;99.90;;;;;;5024825;28;20514;-28
2023/09/24 08:44:21;;;;;;;8.05;6.50;;;17.80;99.90;;;;;;5050613;28;20040;-29
2023/09/24 08:46:50;;;;;;;10.05;7.05;;;18.00;99.90;;;;;;5054824;28;20507;-29
2023/09/24 08:49:17;;;;;;;10.38;7.00;;;18.00;99.90;;;;;;5051307;28;20112;-29
2023/09/24 08:51:46;;;;;;;8.45;6.43;;;18.10;99.90;;;;;;5054500;28;20040;-29
2023/09/24 08:54:12;;;;;;;9.50;6.50;;;18.30;99.90;;;;;;5058091;28;20483;-29
2023/09/24 08:56:38;;;;;;;8.63;6.10;;;18.50;99.90;;;;;;5051265;28;20484;-29
2023/09/24 08:59:05;;;;;;;9.20;6.20;;;18.60;99.90;;;;;;5035935;28;20503;-28
2023/09/24 09:01:31;;;;;;;7.57;5.78;;;18.80;99.90;;;;;;5050256;28;20128;-29
2023/09/24 09:03:58;;;;;;;7.70;6.00;;;18.70;99.90;;;;;;5049157;28;20041;-28
2023/09/24 09:06:35;;;;;;;8.32;6.20;;;18.90;99.90;;;;;;5031370;28;20442;-28
2023/09/24 09:09:01;;;;;;;8.10;6.20;;;19.20;99.90;;;;;;5050964;28;20114;-27
2023/09/24 09:11:56;;;;;;;10.63;5.63;;;19.50;99.90;;;;;;5053682;28;20040;-28
2023/09/24 09:14:34;;;;;;;7.63;5.55;;;19.70;99.90;;;;;;5033367;28;20051;-29
2023/09/24 09:17:00;;;;;;;7.93;5.40;;;19.80;99.90;;;;;;5034954;28;20040;-28
2023/09/24 09:19:30;;;;;;;7.82;5.82;;;20.00;99.90;;;;;;5049947;28;20475;-29
2023/09/24 09:21:56;;;;;;;7.95;5.13;;;20.00;99.90;;;;;;5050919;28;20119;-30
2023/09/24 09:24:25;;;;;;;6.13;4.75;;;20.20;99.90;;;;;;5045516;28;20065;-29
2023/09/24 09:26:55;;;;;;;5.47;4.75;;;20.30;99.90;;;;;;5059006;28;20029;-30
2023/09/24 09:29:27;;;;;;;9.15;5.05;;;20.40;99.90;;;;;;5047453;28;20446;-29
2023/09/24 09:31:54;;;;;;;8.40;5.28;;;20.20;99.90;;;;;;5048196;28;20038;-28
2023/09/24 09:34:21;;;;;;;5.88;4.93;;;20.20;99.90;;;;;;5048297;28;20120;-29
2023/09/24 09:36:47;;;;;;;7.28;4.70;;;20.20;99.90;;;;;;5047122;28;20156;-29
2023/09/24 09:39:13;;;;;;;6.47;4.53;;;20.30;99.90;;;;;;5044595;28;20072;-29
2023/09/24 09:41:42;;;;;;;6.95;4.68;;;20.40;99.90;;;;;;5050118;28;20067;-29
2023/09/24 09:44:09;;;;;;;6.72;4.47;;;20.50;99.90;;;;;;5034315;28;20067;-29
2023/09/24 09:46:38;;;;;;;6.63;4.72;;;20.80;99.90;;;;;;5054199;28;20033;-28
2023/09/24 09:49:09;;;;;;;8.07;4.90;;;20.90;99.90;;;;;;5045147;28;20036;-28
2023/09/24 09:51:46;;;;;;;5.10;4.60;;;21.00;99.90;;;;;;5053549;28;20037;-29
2023/09/24 09:54:13;;;;;;;6.65;4.40;;;21.10;99.90;;;;;;5059353;28;20028;-28
2023/09/24 09:56:41;;;;;;;7.47;4.47;;;21.30;99.90;;;;;;5048589;28;20053;-28
2023/09/24 09:59:07;;;;;;;7.20;4.35;;;21.50;99.90;;;;;;5052128;28;20041;-29
2023/09/24 10:01:34;;;;;;;5.47;4.22;;;21.60;99.90;;;;;;5030951;28;20119;-28
2023/09/24 10:04:05;;;;;;;6.50;3.75;;;21.70;99.90;;;;;;5053505;28;20033;-29
2023/09/24 10:06:34;;;;;;;4.97;3.30;;;21.70;99.90;;;;;;5053763;28;20558;-29
2023/09/24 10:09:01;;;;;;;5.05;3.30;;;21.60;99.90;;;;;;5056173;28;20040;-29
2023/09/24 10:11:33;;;;;;;5.90;3.40;;;21.70;99.90;;;;;;5051253;28;20120;-28
2023/09/24 10:13:58;;;;;;;5.22;3.40;;;21.80;99.90;;;;;;5048107;28;20127;-28
2023/09/24 10:16:35;;;;;;;3.72;2.83;;;21.80;99.90;;;;;;5052519;28;20049;-28
2023/09/24 10:19:11;;;;;;;5.47;2.92;;;21.90;99.90;;;;;;5062234;28;20123;-29
2023/09/24 10:21:45;;;;;;;4.22;2.63;;;21.90;99.90;;;;;;5034651;28;20037;-29
2023/09/24 10:24:14;;;;;;;5.10;2.58;;;22.00;99.90;;;;;;5051918;28;20037;-29
2023/09/24 10:27:01;;;;;;;4.05;2.70;;;22.00;99.90;;;;;;5053572;28;20037;-29
2023/09/24 10:29:45;;;;;;;3.28;2.50;;;22.00;98.90;;;;;;5049790;28;20041;-29
2023/09/24 10:32:12;;;;;;;4.05;2.85;;;22.40;99.90;;;;;;5054192;28;20388;-29
2023/09/24 10:34:55;;;;;;;4.82;2.20;;;22.40;99.90;;;;;;5052715;28;20407;-28
2023/09/24 10:37:26;;;;;;;5.15;2.42;;;22.30;97.60;;;;;;5031221;28;20041;-27
2023/09/24 10:40:05;;;;;;;3.67;1.90;;;22.30;96.90;;;;;;5060158;28;20404;-28
2023/09/24 10:42:31;;;;;;;2.92;1.70;;;22.40;92.80;;;;;;5030882;28;20044;-28
2023/09/24 10:45:06;;;;;;;4.53;2.33;;;22.50;95.00;;;;;;5058337;28;20064;-29
2023/09/24 10:47:38;;;;;;;4.65;2.08;;;22.70;93.10;;;;;;5049254;28;20041;-28
2023/09/24 10:50:06;;;;;;;3.38;1.88;;;22.80;92.90;;;;;;5052656;28;20112;-28
2023/09/24 10:52:54;;;;;;;4.47;1.80;;;22.70;91.50;;;;;;5053971;28;20510;-26
2023/09/24 10:55:29;;;;;;;4.68;1.83;;;23.00;90.50;;;;;;5054119;28;20049;-28
2023/09/24 10:58:00;;;;;;;3.65;1.85;;;23.20;90.40;;;;;;5053636;28;20045;-26
2023/09/24 11:00:28;;;;;;;4.65;2.13;;;23.20;87.30;;;;;;5053956;28;20065;-28
2023/09/24 11:02:55;;;;;;;4.05;2.20;;;23.50;90.00;;;;;;5035868;28;20075;-26
2023/09/24 11:05:21;;;;;;;2.35;1.50;;;23.90;90.10;;;;;;5053860;28;20047;-26
2023/09/24 11:07:46;;;;;;;3.90;1.90;;;24.20;86.30;;;;;;5053737;28;20084;-27
2023/09/24 11:10:18;;;;;;;5.63;2.00;;;24.50;85.70;;;;;;5053820;28;20072;-29
2023/09/24 11:12:52;;;;;;;2.35;1.50;;;24.40;83.70;;;;;;5054032;28;20472;-27
2023/09/24 11:15:19;;;;;;;3.53;1.60;;;24.50;82.30;;;;;;5053289;28;20438;-27
2023/09/24 11:17:46;;;;;;;3.75;1.35;;;24.60;83.30;;;;;;5053390;28;20040;-26
2023/09/24 11:20:13;;;;;;;2.72;1.73;;;24.50;81.70;;;;;;5053275;28;20361;-26
2023/09/24 11:22:40;;;;;;;3.72;1.58;;;24.40;82.00;;;;;;5053387;28;20040;-28
2023/09/24 11:25:10;;;;;;;2.40;1.65;;;23.80;79.90;;;;;;5035061;28;20036;-27
2023/09/24 11:27:57;;;;;;;3.90;1.50;;;23.30;81.10;;;;;;5053128;28;20037;-28
2023/09/24 11:30:42;;;;;;;2.75;1.70;;;22.70;79.90;;;;;;5052724;28;20068;-26
2023/09/24 11:33:20;;;;;;;3.17;1.40;;;22.40;83.10;;;;;;5053139;28;20061;-26
2023/09/24 11:35:46;;;;;;;4.60;1.55;;;22.30;83.80;;;;;;5053156;28;20041;-27
2023/09/24 11:38:12;;;;;;;3.15;1.40;;;22.30;82.90;;;;;;5053079;28;20056;-28
2023/09/24 11:40:40;;;;;;;3.08;1.52;;;22.30;82.70;;;;;;5052947;28;20029;-27
2023/09/24 11:43:18;;;;;;;4.10;1.42;;;22.60;83.80;;;;;;5053420;28;20112;-28
2023/09/24 11:45:48;;;;;;;5.18;1.80;;;22.70;84.20;;;;;;5053288;28;20404;-26
2023/09/24 11:48:25;;;;;;;3.35;1.85;;;23.00;83.60;;;;;;5051887;28;20101;-26
2023/09/24 11:51:01;;;;;;;3.67;1.65;;;23.50;83.40;;;;;;5051613;28;20082;-30
2023/09/24 11:53:26;;;;;;;2.85;1.50;;;23.90;80.60;;;;;;5058502;28;20454;-29
2023/09/24 11:55:58;;;;;;;3.97;1.75;;;24.40;79.90;;;;;;5048054;28;20041;-30
2023/09/24 11:58:26;;;;;;;4.47;1.63;;;24.70;76.50;;;;;;5009768;28;20123;-29
2023/09/24 12:00:54;;;;;;;3.22;1.40;;;25.10;77.30;;;;;;5046877;28;20041;-28
2023/09/24 12:03:23;;;;;;;2.15;1.40;;;25.40;75.70;;;;;;5046076;28;20043;-28
2023/09/24 12:05:50;;;;;;;2.95;1.50;;;25.40;74.50;;;;;;5057429;28;20036;-29
2023/09/24 12:08:17;;;;;;;3.03;1.33;;;25.60;73.10;;;;;;5054773;28;20036;-31
2023/09/24 12:10:47;;;;;;;2.58;1.55;;;25.80;72.80;;;;;;5049531;28;20411;-30
2023/09/24 12:13:14;;;;;;;3.10;1.50;;;25.90;72.40;;;;;;5048081;28;20436;-31
2023/09/24 12:15:40;;;;;;;2.10;1.30;;;26.20;71.80;;;;;;5049443;28;20040;-31
2023/09/24 12:18:08;;;;;;;2.10;1.33;;;26.40;69.90;;;;;;5050533;28;20051;-27
2023/09/24 12:20:36;;;;;;;3.75;1.38;;;26.10;69.30;;;;;;5051110;28;20091;-27
2023/09/24 12:23:06;;;;;;;2.40;1.30;;;26.30;68.90;;;;;;5032855;28;20088;-26
2023/09/24 12:25:34;;;;;;;3.22;1.50;;;26.40;68.40;;;;;;5050549;28;20037;-27
2023/09/24 12:28:02;;;;;;;3.72;1.30;;;26.10;67.70;;;;;;5032693;28;20049;-26
2023/09/24 12:30:27;;;;;;;2.33;1.20;;;25.70;69.10;;;;;;5050990;28;20056;-27
2023/09/24 12:32:53;;;;;;;2.85;1.40;;;25.30;69.00;;;;;;5050645;28;20403;-27
2023/09/24 12:35:20;;;;;;;1.98;1.30;;;25.10;68.40;;;;;;5050963;28;20052;-26
2023/09/24 12:37:46;;;;;;;2.25;1.40;;;25.20;70.00;;;;;;5050819;28;20048;-27
2023/09/24 12:40:12;;;;;;;5.65;1.50;;;25.50;68.80;;;;;;5033001;28;20087;-27
2023/09/24 12:42:39;;;;;;;3.10;1.63;;;26.10;67.80;;;;;;5051614;28;20480;-26
2023/09/24 12:45:08;;;;;;;3.40;1.48;;;26.80;66.70;;;;;;5050735;28;20049;-26